Marion Dufresne — FNIN — position and weather

sailwx.info

Track history (hours):
 
Tides and Currents Weather Stations Pressure Air Temp Water Temp Dewpoint Dewpoint Depression Visibility Wind Speed Wind Dir Waves Ship Positions

Oceanographic research ship Marion Dufresne (France)

Detailed information on ship capabilities available from University of Delaware's Ocean Information Center and ARCUS's ALIAS (Arctic Logistics Information and Support) project.

Last reported at 2017-Feb-20 18:12 UTC. Time now 2017-Apr-27 16:54 UTC.
Position S 30°18' E 031°03'.
Warning: this ship's position is months out of date.

Length 120 m; beam 21 m.

Type: Ship. MMSI: 227235000.

Date/timePositionNaut miles runAvg speedWind from/ knotsBaromVisibWave heightAir tempDewpointWater temp
2017-Feb-20 18:12S 30°18' E 031°03'812.1
2017-Feb-20 17:33S 30°10' E 031°04'1010.4
2017-Feb-20 16:34S 29°60' E 031°06'7 7.4
2017-Feb-20 15:33S 29°53' E 031°07'4 3.9
2017-Feb-20 14:32S 29°52' E 031°02'0 0.0
2017-Feb-20 13:28S 29°52' E 031°02'0 0.0
2017-Feb-20 12:28S 29°52' E 031°02'0 0.0
2017-Feb-20 11:33S 29°52' E 031°02'0 0.0
2017-Feb-20 10:33S 29°52' E 031°02'0 0.0
2017-Feb-20 09:31S 29°52' E 031°02'0 0.0
2017-Feb-20 08:29S 29°52' E 031°02'0 0.0
2017-Feb-20 07:20S 29°52' E 031°02'0 0.0
2017-Feb-20 06:31S 29°52' E 031°02'0 0.0
2017-Feb-20 05:31S 29°52' E 031°02'0 0.0
2017-Feb-20 04:33S 29°52' E 031°02'0 0.0
2017-Feb-20 03:33S 29°52' E 031°02'0 0.0
2017-Feb-20 02:33S 29°52' E 031°02'0 0.0
2017-Feb-20 01:32S 29°52' E 031°02'0 0.0
2017-Feb-20 00:26S 29°52' E 031°02'0 0.0
2017-Feb-19 23:31S 29°52' E 031°02'0 0.0
2017-Feb-19 22:31S 29°52' E 031°02'0 0.0
2017-Feb-19 21:33S 29°52' E 031°02'0 0.0
2017-Feb-19 20:33S 29°52' E 031°02'0 0.0
2017-Feb-19 19:29S 29°52' E 031°02'0 0.0
2017-Feb-19 18:32S 29°52' E 031°02'0 0.0
2017-Feb-19 17:17S 29°52' E 031°02'0 0.0
2017-Feb-19 16:28S 29°52' E 031°02'0 0.0
2017-Feb-19 15:16S 29°52' E 031°02'0 0.0
2017-Feb-19 14:30S 29°52' E 031°02'0 0.0
2017-Feb-19 13:33S 29°52' E 031°02'0 0.0
2017-Feb-19 12:26S 29°52' E 031°02'0 0.0
2017-Feb-19 11:32S 29°52' E 031°02'0 0.0
2017-Feb-19 10:32S 29°52' E 031°02'0 0.0
2017-Feb-19 09:22S 29°52' E 031°02'0 0.0
2017-Feb-19 08:31S 29°52' E 031°02'0 0.0
2017-Feb-19 07:33S 29°52' E 031°02'0 0.0
2017-Feb-19 06:30S 29°52' E 031°02'0 0.0
2017-Feb-19 05:32S 29°52' E 031°02'0 0.0
2017-Feb-19 04:29S 29°52' E 031°02'0 0.0
2017-Feb-19 03:29S 29°52' E 031°02'0 0.0
2017-Feb-19 02:31S 29°52' E 031°02'0 0.0
2017-Feb-19 01:28S 29°52' E 031°02'0 0.0
2017-Feb-19 00:33S 29°52' E 031°02'0 0.0
2017-Feb-18 23:30S 29°52' E 031°02'0 0.0
2017-Feb-18 22:29S 29°52' E 031°02'0 0.0
2017-Feb-18 21:32S 29°52' E 031°02'0 0.0
2017-Feb-18 20:32S 29°52' E 031°02'0 0.0
2017-Feb-18 19:31S 29°52' E 031°02'0 0.0
2017-Feb-18 18:31S 29°52' E 031°02'0 0.0
2017-Feb-18 17:33S 29°52' E 031°02'0 0.0
2017-Feb-18 16:33S 29°52' E 031°02'0 0.0
2017-Feb-18 15:33S 29°52' E 031°02'1 1.1
2017-Feb-18 14:34S 29°53' E 031°03'8 8.4
2017-Feb-18 13:33S 29°49' E 031°12'1312.8
2017-Feb-18 12:33S 29°45' E 031°26'1313.3
2017-Feb-18 11:33S 29°42' E 031°41'1313.1
2017-Feb-18 10:33S 29°39' E 031°56'1313.2
2017-Feb-18 09:33S 29°36' E 032°10'1511.2
2017-Feb-18 08:12S 29°32' E 032°27'6 8.6
2017-Feb-18 07:33S 29°30' E 032°34'9 9.0
2017-Feb-18 06:31S 29°28' E 032°44'  
Track history (hours):
 
Tides and Currents Weather Stations Pressure Air Temp Water Temp Dewpoint Dewpoint Depression Visibility Wind Speed Wind Dir Waves Ship Positions

Oceanographic research ship Marion Dufresne (France)

Detailed information on ship capabilities available from University of Delaware's Ocean Information Center and ARCUS's ALIAS (Arctic Logistics Information and Support) project.

Last reported at 2017-Feb-20 18:12 UTC. Time now 2017-Apr-27 16:54 UTC.
Position S 30°18' E 031°03'.
Warning: this ship's position is months out of date.

Length 120 m; beam 21 m.

Type: Ship. MMSI: 227235000.

Date/timePositionNaut miles runAvg speedWind from/ knotsBaromVisibWave heightAir tempDewpointWater temp
2017-Feb-20 18:12S 30°18' E 031°03'812.1
2017-Feb-20 17:33S 30°10' E 031°04'1010.4
2017-Feb-20 16:34S 29°60' E 031°06'7 7.4
2017-Feb-20 15:33S 29°53' E 031°07'4 3.9
2017-Feb-20 14:32S 29°52' E 031°02'0 0.0
2017-Feb-20 13:28S 29°52' E 031°02'0 0.0
2017-Feb-20 12:28S 29°52' E 031°02'0 0.0
2017-Feb-20 11:33S 29°52' E 031°02'0 0.0
2017-Feb-20 10:33S 29°52' E 031°02'0 0.0
2017-Feb-20 09:31S 29°52' E 031°02'0 0.0
2017-Feb-20 08:29S 29°52' E 031°02'0 0.0
2017-Feb-20 07:20S 29°52' E 031°02'0 0.0
2017-Feb-20 06:31S 29°52' E 031°02'0 0.0
2017-Feb-20 05:31S 29°52' E 031°02'0 0.0
2017-Feb-20 04:33S 29°52' E 031°02'0 0.0
2017-Feb-20 03:33S 29°52' E 031°02'0 0.0
2017-Feb-20 02:33S 29°52' E 031°02'0 0.0
2017-Feb-20 01:32S 29°52' E 031°02'0 0.0
2017-Feb-20 00:26S 29°52' E 031°02'0 0.0
2017-Feb-19 23:31S 29°52' E 031°02'0 0.0
2017-Feb-19 22:31S 29°52' E 031°02'0 0.0
2017-Feb-19 21:33S 29°52' E 031°02'0 0.0
2017-Feb-19 20:33S 29°52' E 031°02'0 0.0
2017-Feb-19 19:29S 29°52' E 031°02'0 0.0
2017-Feb-19 18:32S 29°52' E 031°02'0 0.0
2017-Feb-19 17:17S 29°52' E 031°02'0 0.0
2017-Feb-19 16:28S 29°52' E 031°02'0 0.0
2017-Feb-19 15:16S 29°52' E 031°02'0 0.0
2017-Feb-19 14:30S 29°52' E 031°02'0 0.0
2017-Feb-19 13:33S 29°52' E 031°02'0 0.0
2017-Feb-19 12:26S 29°52' E 031°02'0 0.0
2017-Feb-19 11:32S 29°52' E 031°02'0 0.0
2017-Feb-19 10:32S 29°52' E 031°02'0 0.0
2017-Feb-19 09:22S 29°52' E 031°02'0 0.0
2017-Feb-19 08:31S 29°52' E 031°02'0 0.0
2017-Feb-19 07:33S 29°52' E 031°02'0 0.0
2017-Feb-19 06:30S 29°52' E 031°02'0 0.0
2017-Feb-19 05:32S 29°52' E 031°02'0 0.0
2017-Feb-19 04:29S 29°52' E 031°02'0 0.0
2017-Feb-19 03:29S 29°52' E 031°02'0 0.0
2017-Feb-19 02:31S 29°52' E 031°02'0 0.0
2017-Feb-19 01:28S 29°52' E 031°02'0 0.0
2017-Feb-19 00:33S 29°52' E 031°02'0 0.0
2017-Feb-18 23:30S 29°52' E 031°02'0 0.0
2017-Feb-18 22:29S 29°52' E 031°02'0 0.0
2017-Feb-18 21:32S 29°52' E 031°02'0 0.0
2017-Feb-18 20:32S 29°52' E 031°02'0 0.0
2017-Feb-18 19:31S 29°52' E 031°02'0 0.0
2017-Feb-18 18:31S 29°52' E 031°02'0 0.0
2017-Feb-18 17:33S 29°52' E 031°02'0 0.0
2017-Feb-18 16:33S 29°52' E 031°02'0 0.0
2017-Feb-18 15:33S 29°52' E 031°02'1 1.1
2017-Feb-18 14:34S 29°53' E 031°03'8 8.4
2017-Feb-18 13:33S 29°49' E 031°12'1312.8
2017-Feb-18 12:33S 29°45' E 031°26'1313.3
2017-Feb-18 11:33S 29°42' E 031°41'1313.1
2017-Feb-18 10:33S 29°39' E 031°56'1313.2
2017-Feb-18 09:33S 29°36' E 032°10'1511.2
2017-Feb-18 08:12S 29°32' E 032°27'6 8.6
2017-Feb-18 07:33S 29°30' E 032°34'9 9.0
2017-Feb-18 06:31S 29°28' E 032°44'  

Dump ship's entire track history